sensor_id;sensor_type;location;lat;lon;timestamp;P1;durP1;ratioP1;P2;durP2;ratioP2
8871;SDS011;4472;52.092;9.820;2023-04-28T00:02:33;6.07;;;4.97;;
8871;SDS011;4472;52.092;9.820;2023-04-28T00:05:20;8.10;;;5.27;;
8871;SDS011;4472;52.092;9.820;2023-04-28T00:08:10;6.57;;;5.23;;
8871;SDS011;4472;52.092;9.820;2023-04-28T00:10:57;7.97;;;4.37;;
8871;SDS011;4472;52.092;9.820;2023-04-28T00:13:45;6.30;;;4.57;;
8871;SDS011;4472;52.092;9.820;2023-04-28T00:16:32;5.80;;;4.73;;
8871;SDS011;4472;52.092;9.820;2023-04-28T00:19:20;7.23;;;5.00;;
8871;SDS011;4472;52.092;9.820;2023-04-28T00:22:07;10.53;;;5.10;;
8871;SDS011;4472;52.092;9.820;2023-04-28T00:24:56;7.03;;;5.07;;
8871;SDS011;4472;52.092;9.820;2023-04-28T00:27:43;6.37;;;4.80;;
8871;SDS011;4472;52.092;9.820;2023-04-28T00:30:30;8.73;;;4.60;;
8871;SDS011;4472;52.092;9.820;2023-04-28T00:33:17;9.30;;;4.70;;
8871;SDS011;4472;52.092;9.820;2023-04-28T00:36:04;5.60;;;4.87;;
8871;SDS011;4472;52.092;9.820;2023-04-28T00:38:52;6.30;;;4.73;;
8871;SDS011;4472;52.092;9.820;2023-04-28T00:41:41;8.40;;;4.90;;
8871;SDS011;4472;52.092;9.820;2023-04-28T00:44:28;7.17;;;4.70;;
8871;SDS011;4472;52.092;9.820;2023-04-28T00:47:15;9.40;;;5.00;;
8871;SDS011;4472;52.092;9.820;2023-04-28T00:50:04;8.00;;;4.93;;
8871;SDS011;4472;52.092;9.820;2023-04-28T00:52:51;8.60;;;4.87;;
8871;SDS011;4472;52.092;9.820;2023-04-28T00:55:39;6.80;;;5.10;;
8871;SDS011;4472;52.092;9.820;2023-04-28T00:58:27;8.90;;;4.80;;
8871;SDS011;4472;52.092;9.820;2023-04-28T01:01:15;5.40;;;4.43;;
8871;SDS011;4472;52.092;9.820;2023-04-28T01:04:03;7.67;;;5.20;;
8871;SDS011;4472;52.092;9.820;2023-04-28T01:06:51;7.30;;;4.63;;
8871;SDS011;4472;52.092;9.820;2023-04-28T01:09:39;10.47;;;5.17;;
8871;SDS011;4472;52.092;9.820;2023-04-28T01:12:26;7.03;;;4.90;;
8871;SDS011;4472;52.092;9.820;2023-04-28T01:15:16;5.60;;;4.80;;
8871;SDS011;4472;52.092;9.820;2023-04-28T01:18:04;6.27;;;4.67;;
8871;SDS011;4472;52.092;9.820;2023-04-28T01:20:51;6.13;;;4.40;;
8871;SDS011;4472;52.092;9.820;2023-04-28T01:23:39;8.27;;;4.23;;
8871;SDS011;4472;52.092;9.820;2023-04-28T01:26:28;11.53;;;4.50;;
8871;SDS011;4472;52.092;9.820;2023-04-28T01:29:15;9.40;;;5.10;;
8871;SDS011;4472;52.092;9.820;2023-04-28T01:32:02;9.23;;;4.57;;
8871;SDS011;4472;52.092;9.820;2023-04-28T01:34:50;7.23;;;4.73;;
8871;SDS011;4472;52.092;9.820;2023-04-28T01:37:37;6.33;;;4.50;;
8871;SDS011;4472;52.092;9.820;2023-04-28T01:40:24;8.37;;;5.27;;
8871;SDS011;4472;52.092;9.820;2023-04-28T01:43:12;6.70;;;5.00;;
8871;SDS011;4472;52.092;9.820;2023-04-28T01:46:00;8.20;;;5.37;;
8871;SDS011;4472;52.092;9.820;2023-04-28T01:48:47;9.97;;;5.20;;
8871;SDS011;4472;52.092;9.820;2023-04-28T01:51:34;6.90;;;5.40;;
8871;SDS011;4472;52.092;9.820;2023-04-28T01:54:21;7.83;;;6.07;;
8871;SDS011;4472;52.092;9.820;2023-04-28T01:57:08;8.27;;;5.30;;
8871;SDS011;4472;52.092;9.820;2023-04-28T01:59:56;8.97;;;5.40;;
8871;SDS011;4472;52.092;9.820;2023-04-28T02:02:44;7.23;;;5.17;;
8871;SDS011;4472;52.092;9.820;2023-04-28T02:05:32;7.53;;;5.67;;
8871;SDS011;4472;52.092;9.820;2023-04-28T02:08:19;8.37;;;5.50;;
8871;SDS011;4472;52.092;9.820;2023-04-28T02:11:06;7.27;;;4.97;;
8871;SDS011;4472;52.092;9.820;2023-04-28T02:13:53;9.23;;;5.50;;
8871;SDS011;4472;52.092;9.820;2023-04-28T02:16:41;9.20;;;5.67;;
8871;SDS011;4472;52.092;9.820;2023-04-28T02:19:28;9.00;;;5.27;;
8871;SDS011;4472;52.092;9.820;2023-04-28T02:22:16;11.27;;;5.23;;
8871;SDS011;4472;52.092;9.820;2023-04-28T02:25:03;8.13;;;5.50;;
8871;SDS011;4472;52.092;9.820;2023-04-28T02:27:51;9.47;;;6.03;;
8871;SDS011;4472;52.092;9.820;2023-04-28T02:30:38;10.43;;;5.97;;
8871;SDS011;4472;52.092;9.820;2023-04-28T02:33:26;9.17;;;6.20;;
8871;SDS011;4472;52.092;9.820;2023-04-28T02:36:14;9.30;;;6.30;;
8871;SDS011;4472;52.092;9.820;2023-04-28T02:39:01;9.47;;;5.83;;
8871;SDS011;4472;52.092;9.820;2023-04-28T02:41:48;8.63;;;5.87;;
8871;SDS011;4472;52.092;9.820;2023-04-28T02:44:35;8.20;;;5.90;;
8871;SDS011;4472;52.092;9.820;2023-04-28T02:47:23;11.57;;;6.10;;
8871;SDS011;4472;52.092;9.820;2023-04-28T02:50:11;8.80;;;6.20;;
8871;SDS011;4472;52.092;9.820;2023-04-28T02:52:58;9.03;;;6.43;;
8871;SDS011;4472;52.092;9.820;2023-04-28T02:55:45;8.60;;;6.63;;
8871;SDS011;4472;52.092;9.820;2023-04-28T02:58:32;11.17;;;6.33;;
8871;SDS011;4472;52.092;9.820;2023-04-28T03:01:20;11.47;;;7.00;;
8871;SDS011;4472;52.092;9.820;2023-04-28T03:04:07;7.70;;;5.83;;
8871;SDS011;4472;52.092;9.820;2023-04-28T03:06:55;9.50;;;6.33;;
8871;SDS011;4472;52.092;9.820;2023-04-28T03:09:42;11.10;;;6.73;;
8871;SDS011;4472;52.092;9.820;2023-04-28T03:12:30;8.93;;;5.87;;
8871;SDS011;4472;52.092;9.820;2023-04-28T03:15:17;7.00;;;5.87;;
8871;SDS011;4472;52.092;9.820;2023-04-28T03:18:04;8.40;;;6.33;;
8871;SDS011;4472;52.092;9.820;2023-04-28T03:20:52;9.53;;;6.67;;
8871;SDS011;4472;52.092;9.820;2023-04-28T03:23:40;10.23;;;6.23;;
8871;SDS011;4472;52.092;9.820;2023-04-28T03:26:27;10.03;;;6.10;;
8871;SDS011;4472;52.092;9.820;2023-04-28T03:29:14;8.50;;;5.73;;
8871;SDS011;4472;52.092;9.820;2023-04-28T03:32:01;9.17;;;5.87;;
8871;SDS011;4472;52.092;9.820;2023-04-28T03:34:48;7.77;;;5.40;;
8871;SDS011;4472;52.092;9.820;2023-04-28T03:37:36;8.40;;;6.53;;
8871;SDS011;4472;52.092;9.820;2023-04-28T03:40:24;8.87;;;6.43;;
8871;SDS011;4472;52.092;9.820;2023-04-28T03:43:11;9.30;;;6.67;;
8871;SDS011;4472;52.092;9.820;2023-04-28T03:45:58;12.90;;;6.40;;
8871;SDS011;4472;52.092;9.820;2023-04-28T03:48:45;8.60;;;5.40;;
8871;SDS011;4472;52.092;9.820;2023-04-28T03:51:32;9.23;;;6.60;;
8871;SDS011;4472;52.092;9.820;2023-04-28T03:54:19;7.87;;;6.40;;
8871;SDS011;4472;52.092;9.820;2023-04-28T03:57:08;8.63;;;6.27;;
8871;SDS011;4472;52.092;9.820;2023-04-28T03:59:55;11.43;;;6.77;;
8871;SDS011;4472;52.092;9.820;2023-04-28T04:02:42;10.20;;;6.73;;
8871;SDS011;4472;52.092;9.820;2023-04-28T04:05:30;13.07;;;7.30;;
8871;SDS011;4472;52.092;9.820;2023-04-28T04:08:17;10.77;;;6.97;;
8871;SDS011;4472;52.092;9.820;2023-04-28T04:11:04;10.47;;;6.73;;
8871;SDS011;4472;52.092;9.820;2023-04-28T04:13:53;8.03;;;5.77;;
8871;SDS011;4472;52.092;9.820;2023-04-28T04:16:40;11.33;;;7.07;;
8871;SDS011;4472;52.092;9.820;2023-04-28T04:19:27;10.17;;;6.80;;
8871;SDS011;4472;52.092;9.820;2023-04-28T04:22:14;8.97;;;6.97;;
8871;SDS011;4472;52.092;9.820;2023-04-28T04:25:01;11.30;;;7.77;;
8871;SDS011;4472;52.092;9.820;2023-04-28T04:27:49;10.87;;;7.23;;
8871;SDS011;4472;52.092;9.820;2023-04-28T04:30:38;12.60;;;6.57;;
8871;SDS011;4472;52.092;9.820;2023-04-28T04:33:25;12.03;;;7.57;;
8871;SDS011;4472;52.092;9.820;2023-04-28T04:36:12;9.23;;;7.03;;
8871;SDS011;4472;52.092;9.820;2023-04-28T04:38:59;18.00;;;7.73;;
8871;SDS011;4472;52.092;9.820;2023-04-28T04:41:46;12.30;;;6.97;;
8871;SDS011;4472;52.092;9.820;2023-04-28T04:44:34;10.87;;;7.03;;
8871;SDS011;4472;52.092;9.820;2023-04-28T04:47:22;10.17;;;7.03;;
8871;SDS011;4472;52.092;9.820;2023-04-28T04:50:09;9.73;;;6.77;;
8871;SDS011;4472;52.092;9.820;2023-04-28T04:52:57;10.73;;;6.57;;
8871;SDS011;4472;52.092;9.820;2023-04-28T04:55:44;11.10;;;6.60;;
8871;SDS011;4472;52.092;9.820;2023-04-28T04:58:31;12.77;;;7.37;;
8871;SDS011;4472;52.092;9.820;2023-04-28T05:01:18;10.20;;;7.50;;
8871;SDS011;4472;52.092;9.820;2023-04-28T05:04:07;10.73;;;7.03;;
8871;SDS011;4472;52.092;9.820;2023-04-28T05:06:54;13.50;;;7.83;;
8871;SDS011;4472;52.092;9.820;2023-04-28T05:09:42;10.87;;;7.23;;
8871;SDS011;4472;52.092;9.820;2023-04-28T05:12:29;9.67;;;7.40;;
8871;SDS011;4472;52.092;9.820;2023-04-28T05:15:16;10.93;;;7.10;;
8871;SDS011;4472;52.092;9.820;2023-04-28T05:18:03;10.30;;;7.10;;
8871;SDS011;4472;52.092;9.820;2023-04-28T05:20:56;9.83;;;6.73;;
8871;SDS011;4472;52.092;9.820;2023-04-28T05:23:43;8.80;;;7.03;;
8871;SDS011;4472;52.092;9.820;2023-04-28T05:26:31;7.47;;;6.30;;
8871;SDS011;4472;52.092;9.820;2023-04-28T05:29:18;10.50;;;6.83;;
8871;SDS011;4472;52.092;9.820;2023-04-28T05:32:06;10.53;;;6.50;;
8871;SDS011;4472;52.092;9.820;2023-04-28T05:34:53;10.17;;;6.37;;
8871;SDS011;4472;52.092;9.820;2023-04-28T05:37:41;8.57;;;6.53;;
8871;SDS011;4472;52.092;9.820;2023-04-28T05:40:30;9.50;;;6.63;;
8871;SDS011;4472;52.092;9.820;2023-04-28T05:43:20;9.50;;;6.80;;
8871;SDS011;4472;52.092;9.820;2023-04-28T05:46:08;10.70;;;6.57;;
8871;SDS011;4472;52.092;9.820;2023-04-28T05:48:55;10.00;;;6.57;;
8871;SDS011;4472;52.092;9.820;2023-04-28T05:51:42;8.50;;;6.43;;
8871;SDS011;4472;52.092;9.820;2023-04-28T05:54:30;7.67;;;6.40;;
8871;SDS011;4472;52.092;9.820;2023-04-28T05:57:18;8.43;;;6.17;;
8871;SDS011;4472;52.092;9.820;2023-04-28T06:00:06;11.23;;;6.83;;
8871;SDS011;4472;52.092;9.820;2023-04-28T06:02:54;8.10;;;6.10;;
8871;SDS011;4472;52.092;9.820;2023-04-28T06:05:41;7.97;;;6.20;;
8871;SDS011;4472;52.092;9.820;2023-04-28T06:08:28;10.90;;;6.57;;
8871;SDS011;4472;52.092;9.820;2023-04-28T06:11:18;13.33;;;6.60;;
8871;SDS011;4472;52.092;9.820;2023-04-28T06:14:08;9.17;;;6.40;;
8871;SDS011;4472;52.092;9.820;2023-04-28T06:16:55;14.50;;;6.47;;
8871;SDS011;4472;52.092;9.820;2023-04-28T06:19:42;10.50;;;6.67;;
8871;SDS011;4472;52.092;9.820;2023-04-28T06:22:30;7.77;;;6.27;;
8871;SDS011;4472;52.092;9.820;2023-04-28T06:25:17;9.80;;;7.17;;
8871;SDS011;4472;52.092;9.820;2023-04-28T06:28:05;14.50;;;7.17;;
8871;SDS011;4472;52.092;9.820;2023-04-28T06:30:53;13.80;;;7.47;;
8871;SDS011;4472;52.092;9.820;2023-04-28T06:33:40;9.20;;;6.80;;
8871;SDS011;4472;52.092;9.820;2023-04-28T06:36:33;10.37;;;7.13;;
8871;SDS011;4472;52.092;9.820;2023-04-28T06:39:20;11.03;;;7.10;;
8871;SDS011;4472;52.092;9.820;2023-04-28T06:42:07;9.57;;;6.90;;
8871;SDS011;4472;52.092;9.820;2023-04-28T06:44:56;15.03;;;8.10;;
8871;SDS011;4472;52.092;9.820;2023-04-28T06:47:43;14.33;;;8.73;;
8871;SDS011;4472;52.092;9.820;2023-04-28T06:50:31;9.37;;;6.73;;
8871;SDS011;4472;52.092;9.820;2023-04-28T06:53:19;31.57;;;17.57;;
8871;SDS011;4472;52.092;9.820;2023-04-28T06:56:06;15.57;;;10.43;;
8871;SDS011;4472;52.092;9.820;2023-04-28T06:58:53;27.97;;;14.13;;
8871;SDS011;4472;52.092;9.820;2023-04-28T07:01:42;31.73;;;15.17;;
8871;SDS011;4472;52.092;9.820;2023-04-28T07:04:30;20.00;;;11.37;;
8871;SDS011;4472;52.092;9.820;2023-04-28T07:07:17;12.10;;;8.67;;
8871;SDS011;4472;52.092;9.820;2023-04-28T07:10:04;11.13;;;7.70;;
8871;SDS011;4472;52.092;9.820;2023-04-28T07:12:52;11.20;;;7.97;;
8871;SDS011;4472;52.092;9.820;2023-04-28T07:15:39;11.87;;;8.50;;
8871;SDS011;4472;52.092;9.820;2023-04-28T07:18:27;11.67;;;8.00;;
8871;SDS011;4472;52.092;9.820;2023-04-28T07:21:15;13.83;;;7.73;;
8871;SDS011;4472;52.092;9.820;2023-04-28T07:24:02;10.40;;;7.53;;
8871;SDS011;4472;52.092;9.820;2023-04-28T07:26:49;12.13;;;7.40;;
8871;SDS011;4472;52.092;9.820;2023-04-28T07:29:36;13.07;;;8.00;;
8871;SDS011;4472;52.092;9.820;2023-04-28T07:32:23;13.00;;;7.83;;
8871;SDS011;4472;52.092;9.820;2023-04-28T07:35:12;9.73;;;7.60;;
8871;SDS011;4472;52.092;9.820;2023-04-28T07:37:59;11.30;;;7.33;;
8871;SDS011;4472;52.092;9.820;2023-04-28T07:40:47;9.37;;;7.57;;
8871;SDS011;4472;52.092;9.820;2023-04-28T07:43:35;10.37;;;7.77;;
8871;SDS011;4472;52.092;9.820;2023-04-28T07:46:22;10.67;;;7.83;;
8871;SDS011;4472;52.092;9.820;2023-04-28T07:49:09;12.57;;;8.27;;
8871;SDS011;4472;52.092;9.820;2023-04-28T07:51:58;11.07;;;7.63;;
8871;SDS011;4472;52.092;9.820;2023-04-28T07:54:45;11.40;;;8.67;;
8871;SDS011;4472;52.092;9.820;2023-04-28T07:57:32;12.07;;;8.67;;
8871;SDS011;4472;52.092;9.820;2023-04-28T08:00:19;10.63;;;7.60;;
8871;SDS011;4472;52.092;9.820;2023-04-28T08:03:06;10.83;;;8.03;;
8871;SDS011;4472;52.092;9.820;2023-04-28T08:05:57;10.67;;;8.10;;
8871;SDS011;4472;52.092;9.820;2023-04-28T08:09:01;13.10;;;7.97;;
8871;SDS011;4472;52.092;9.820;2023-04-28T08:12:10;13.53;;;8.20;;
8871;SDS011;4472;52.092;9.820;2023-04-28T08:14:58;12.37;;;8.03;;
8871;SDS011;4472;52.092;9.820;2023-04-28T08:17:45;13.87;;;9.00;;
8871;SDS011;4472;52.092;9.820;2023-04-28T08:20:32;13.80;;;8.23;;
8871;SDS011;4472;52.092;9.820;2023-04-28T08:23:20;11.97;;;8.77;;
8871;SDS011;4472;52.092;9.820;2023-04-28T08:26:09;11.80;;;7.90;;
8871;SDS011;4472;52.092;9.820;2023-04-28T08:28:56;13.27;;;7.50;;
8871;SDS011;4472;52.092;9.820;2023-04-28T08:31:43;12.53;;;8.50;;
8871;SDS011;4472;52.092;9.820;2023-04-28T08:34:30;11.00;;;7.90;;
8871;SDS011;4472;52.092;9.820;2023-04-28T08:37:18;15.10;;;8.30;;
8871;SDS011;4472;52.092;9.820;2023-04-28T08:40:06;10.60;;;7.50;;
8871;SDS011;4472;52.092;9.820;2023-04-28T08:42:56;12.03;;;7.50;;
8871;SDS011;4472;52.092;9.820;2023-04-28T08:45:49;11.03;;;8.23;;
8871;SDS011;4472;52.092;9.820;2023-04-28T08:48:38;10.73;;;7.07;;
8871;SDS011;4472;52.092;9.820;2023-04-28T08:51:30;10.33;;;7.10;;
8871;SDS011;4472;52.092;9.820;2023-04-28T08:54:18;9.50;;;7.00;;
8871;SDS011;4472;52.092;9.820;2023-04-28T08:57:07;10.93;;;8.37;;
8871;SDS011;4472;52.092;9.820;2023-04-28T08:59:56;16.33;;;13.80;;
8871;SDS011;4472;52.092;9.820;2023-04-28T09:02:44;10.23;;;8.00;;
8871;SDS011;4472;52.092;9.820;2023-04-28T09:05:31;11.53;;;7.40;;
8871;SDS011;4472;52.092;9.820;2023-04-28T09:08:18;10.77;;;7.70;;
8871;SDS011;4472;52.092;9.820;2023-04-28T09:11:06;11.13;;;7.30;;
8871;SDS011;4472;52.092;9.820;2023-04-28T09:13:53;13.77;;;7.53;;
8871;SDS011;4472;52.092;9.820;2023-04-28T09:17:09;11.67;;;7.80;;
8871;SDS011;4472;52.092;9.820;2023-04-28T09:19:57;11.67;;;7.77;;
8871;SDS011;4472;52.092;9.820;2023-04-28T09:22:45;12.20;;;8.00;;
8871;SDS011;4472;52.092;9.820;2023-04-28T09:25:32;13.33;;;7.43;;
8871;SDS011;4472;52.092;9.820;2023-04-28T09:28:20;9.47;;;8.00;;
8871;SDS011;4472;52.092;9.820;2023-04-28T09:31:20;8.83;;;7.37;;
8871;SDS011;4472;52.092;9.820;2023-04-28T09:34:10;11.90;;;7.40;;
8871;SDS011;4472;52.092;9.820;2023-04-28T09:36:58;7.67;;;6.53;;
8871;SDS011;4472;52.092;9.820;2023-04-28T09:39:46;9.40;;;7.30;;
8871;SDS011;4472;52.092;9.820;2023-04-28T09:42:35;12.57;;;7.30;;
8871;SDS011;4472;52.092;9.820;2023-04-28T09:45:23;9.07;;;6.83;;
8871;SDS011;4472;52.092;9.820;2023-04-28T09:48:11;9.47;;;7.43;;
8871;SDS011;4472;52.092;9.820;2023-04-28T09:51:00;11.90;;;7.60;;
8871;SDS011;4472;52.092;9.820;2023-04-28T09:53:48;9.27;;;7.17;;
8871;SDS011;4472;52.092;9.820;2023-04-28T09:56:37;9.50;;;7.27;;
8871;SDS011;4472;52.092;9.820;2023-04-28T09:59:27;8.50;;;6.90;;
8871;SDS011;4472;52.092;9.820;2023-04-28T10:02:15;9.90;;;6.70;;
8871;SDS011;4472;52.092;9.820;2023-04-28T10:05:03;12.30;;;6.87;;
8871;SDS011;4472;52.092;9.820;2023-04-28T10:07:54;9.50;;;6.87;;
8871;SDS011;4472;52.092;9.820;2023-04-28T10:10:41;12.13;;;7.20;;
8871;SDS011;4472;52.092;9.820;2023-04-28T10:13:29;8.20;;;7.33;;
8871;SDS011;4472;52.092;9.820;2023-04-28T10:16:17;9.20;;;7.00;;
8871;SDS011;4472;52.092;9.820;2023-04-28T10:19:05;9.37;;;6.47;;
8871;SDS011;4472;52.092;9.820;2023-04-28T10:22:07;11.37;;;7.53;;
8871;SDS011;4472;52.092;9.820;2023-04-28T10:25:15;11.57;;;7.27;;
8871;SDS011;4472;52.092;9.820;2023-04-28T10:28:10;9.67;;;7.47;;
8871;SDS011;4472;52.092;9.820;2023-04-28T10:31:08;13.27;;;7.60;;
8871;SDS011;4472;52.092;9.820;2023-04-28T10:33:56;9.80;;;7.33;;
8871;SDS011;4472;52.092;9.820;2023-04-28T10:37:13;9.33;;;6.87;;
8871;SDS011;4472;52.092;9.820;2023-04-28T10:43:33;9.03;;;7.53;;
8871;SDS011;4472;52.092;9.820;2023-04-28T10:46:23;9.80;;;7.40;;
8871;SDS011;4472;52.092;9.820;2023-04-28T10:49:13;11.43;;;7.23;;
8871;SDS011;4472;52.092;9.820;2023-04-28T10:52:00;10.90;;;7.43;;
8871;SDS011;4472;52.092;9.820;2023-04-28T10:55:34;9.33;;;7.83;;
8871;SDS011;4472;52.092;9.820;2023-04-28T10:58:30;15.43;;;7.37;;
8871;SDS011;4472;52.092;9.820;2023-04-28T11:01:24;12.13;;;8.00;;
8871;SDS011;4472;52.092;9.820;2023-04-28T11:04:13;12.20;;;7.87;;
8871;SDS011;4472;52.092;9.820;2023-04-28T11:07:07;8.53;;;6.60;;
8871;SDS011;4472;52.092;9.820;2023-04-28T11:09:55;10.70;;;6.87;;
8871;SDS011;4472;52.092;9.820;2023-04-28T11:16:04;8.57;;;6.07;;
8871;SDS011;4472;52.092;9.820;2023-04-28T11:18:53;9.23;;;6.97;;
8871;SDS011;4472;52.092;9.820;2023-04-28T11:21:41;9.07;;;6.60;;
8871;SDS011;4472;52.092;9.820;2023-04-28T11:24:29;6.87;;;5.97;;
8871;SDS011;4472;52.092;9.820;2023-04-28T11:27:22;10.10;;;6.40;;
8871;SDS011;4472;52.092;9.820;2023-04-28T11:30:19;8.97;;;6.40;;
8871;SDS011;4472;52.092;9.820;2023-04-28T11:33:08;8.07;;;6.00;;
8871;SDS011;4472;52.092;9.820;2023-04-28T11:35:55;11.17;;;5.93;;
8871;SDS011;4472;52.092;9.820;2023-04-28T11:38:43;7.90;;;5.77;;
8871;SDS011;4472;52.092;9.820;2023-04-28T11:41:31;8.53;;;5.73;;
8871;SDS011;4472;52.092;9.820;2023-04-28T11:44:19;7.87;;;6.13;;
8871;SDS011;4472;52.092;9.820;2023-04-28T11:47:07;6.60;;;5.90;;
8871;SDS011;4472;52.092;9.820;2023-04-28T11:49:56;7.93;;;7.13;;
8871;SDS011;4472;52.092;9.820;2023-04-28T11:52:49;7.73;;;6.63;;
8871;SDS011;4472;52.092;9.820;2023-04-28T11:55:37;13.23;;;8.07;;
8871;SDS011;4472;52.092;9.820;2023-04-28T11:58:24;11.77;;;8.00;;
8871;SDS011;4472;52.092;9.820;2023-04-28T12:01:12;12.17;;;7.73;;
8871;SDS011;4472;52.092;9.820;2023-04-28T12:04:00;9.07;;;8.10;;
8871;SDS011;4472;52.092;9.820;2023-04-28T12:07:00;12.50;;;8.13;;
8871;SDS011;4472;52.092;9.820;2023-04-28T12:12:57;13.30;;;10.00;;
8871;SDS011;4472;52.092;9.820;2023-04-28T12:16:00;15.07;;;10.03;;
8871;SDS011;4472;52.092;9.820;2023-04-28T12:18:56;13.40;;;11.00;;
8871;SDS011;4472;52.092;9.820;2023-04-28T12:21:57;12.23;;;10.23;;
8871;SDS011;4472;52.092;9.820;2023-04-28T12:25:02;12.20;;;9.80;;
8871;SDS011;4472;52.092;9.820;2023-04-28T12:27:57;11.53;;;9.40;;
8871;SDS011;4472;52.092;9.820;2023-04-28T12:30:46;13.10;;;9.67;;
8871;SDS011;4472;52.092;9.820;2023-04-28T12:33:34;10.27;;;9.10;;
8871;SDS011;4472;52.092;9.820;2023-04-28T12:36:22;10.83;;;9.23;;
8871;SDS011;4472;52.092;9.820;2023-04-28T12:39:13;12.87;;;10.00;;
8871;SDS011;4472;52.092;9.820;2023-04-28T12:42:03;11.47;;;9.70;;
8871;SDS011;4472;52.092;9.820;2023-04-28T12:44:50;12.67;;;9.67;;
8871;SDS011;4472;52.092;9.820;2023-04-28T12:47:37;11.63;;;10.03;;
8871;SDS011;4472;52.092;9.820;2023-04-28T12:50:25;13.27;;;10.87;;
8871;SDS011;4472;52.092;9.820;2023-04-28T12:53:13;11.77;;;10.37;;
8871;SDS011;4472;52.092;9.820;2023-04-28T12:56:02;11.77;;;9.77;;
8871;SDS011;4472;52.092;9.820;2023-04-28T12:58:49;12.83;;;10.27;;
8871;SDS011;4472;52.092;9.820;2023-04-28T13:01:37;12.60;;;10.00;;
8871;SDS011;4472;52.092;9.820;2023-04-28T13:04:24;16.27;;;10.77;;
8871;SDS011;4472;52.092;9.820;2023-04-28T13:07:11;14.10;;;10.63;;
8871;SDS011;4472;52.092;9.820;2023-04-28T13:09:59;11.33;;;9.90;;
8871;SDS011;4472;52.092;9.820;2023-04-28T13:12:47;12.03;;;10.17;;
8871;SDS011;4472;52.092;9.820;2023-04-28T13:15:34;13.47;;;10.60;;
8871;SDS011;4472;52.092;9.820;2023-04-28T13:18:22;13.17;;;10.40;;
8871;SDS011;4472;52.092;9.820;2023-04-28T13:21:09;12.20;;;10.13;;
8871;SDS011;4472;52.092;9.820;2023-04-28T13:23:56;14.97;;;9.63;;
8871;SDS011;4472;52.092;9.820;2023-04-28T13:26:43;14.00;;;10.07;;
8871;SDS011;4472;52.092;9.820;2023-04-28T13:29:34;13.53;;;11.17;;
8871;SDS011;4472;52.092;9.820;2023-04-28T13:32:22;14.17;;;11.30;;
8871;SDS011;4472;52.092;9.820;2023-04-28T13:35:09;12.93;;;11.00;;
8871;SDS011;4472;52.092;9.820;2023-04-28T13:37:56;12.53;;;10.90;;
8871;SDS011;4472;52.092;9.820;2023-04-28T13:40:46;16.47;;;11.30;;
8871;SDS011;4472;52.092;9.820;2023-04-28T13:43:33;17.17;;;11.73;;
8871;SDS011;4472;52.092;9.820;2023-04-28T13:46:23;13.77;;;11.17;;
8871;SDS011;4472;52.092;9.820;2023-04-28T13:49:10;13.07;;;10.80;;
8871;SDS011;4472;52.092;9.820;2023-04-28T13:51:57;15.33;;;11.60;;
8871;SDS011;4472;52.092;9.820;2023-04-28T13:54:44;13.73;;;11.97;;
8871;SDS011;4472;52.092;9.820;2023-04-28T13:57:31;14.07;;;11.43;;
8871;SDS011;4472;52.092;9.820;2023-04-28T14:00:19;14.50;;;11.77;;
8871;SDS011;4472;52.092;9.820;2023-04-28T14:03:08;13.43;;;11.10;;
8871;SDS011;4472;52.092;9.820;2023-04-28T14:05:56;14.53;;;11.97;;
8871;SDS011;4472;52.092;9.820;2023-04-28T14:08:44;17.73;;;11.70;;
8871;SDS011;4472;52.092;9.820;2023-04-28T14:11:32;19.97;;;11.83;;
8871;SDS011;4472;52.092;9.820;2023-04-28T14:14:19;14.90;;;12.93;;
8871;SDS011;4472;52.092;9.820;2023-04-28T14:17:08;16.73;;;11.47;;
8871;SDS011;4472;52.092;9.820;2023-04-28T14:19:56;19.00;;;14.20;;
8871;SDS011;4472;52.092;9.820;2023-04-28T14:22:43;13.17;;;11.30;;
8871;SDS011;4472;52.092;9.820;2023-04-28T14:25:30;18.20;;;12.17;;
8871;SDS011;4472;52.092;9.820;2023-04-28T14:28:18;13.87;;;12.10;;
8871;SDS011;4472;52.092;9.820;2023-04-28T14:31:06;16.40;;;11.97;;
8871;SDS011;4472;52.092;9.820;2023-04-28T14:33:53;12.03;;;10.83;;
8871;SDS011;4472;52.092;9.820;2023-04-28T14:36:41;14.50;;;11.93;;
8871;SDS011;4472;52.092;9.820;2023-04-28T14:39:28;15.53;;;11.50;;
8871;SDS011;4472;52.092;9.820;2023-04-28T14:42:15;14.67;;;11.83;;
8871;SDS011;4472;52.092;9.820;2023-04-28T14:45:03;12.93;;;11.50;;
8871;SDS011;4472;52.092;9.820;2023-04-28T14:47:51;14.70;;;12.67;;
8871;SDS011;4472;52.092;9.820;2023-04-28T14:50:38;19.13;;;12.63;;
8871;SDS011;4472;52.092;9.820;2023-04-28T14:53:29;12.60;;;11.20;;
8871;SDS011;4472;52.092;9.820;2023-04-28T14:56:16;13.67;;;12.20;;
8871;SDS011;4472;52.092;9.820;2023-04-28T14:59:04;16.13;;;12.57;;
8871;SDS011;4472;52.092;9.820;2023-04-28T15:01:52;15.80;;;12.30;;
8871;SDS011;4472;52.092;9.820;2023-04-28T15:04:40;19.67;;;12.70;;
8871;SDS011;4472;52.092;9.820;2023-04-28T15:07:28;17.37;;;13.47;;
8871;SDS011;4472;52.092;9.820;2023-04-28T15:10:18;17.33;;;13.03;;
8871;SDS011;4472;52.092;9.820;2023-04-28T15:13:05;14.60;;;12.80;;
8871;SDS011;4472;52.092;9.820;2023-04-28T15:15:53;16.77;;;13.27;;
8871;SDS011;4472;52.092;9.820;2023-04-28T15:18:40;15.40;;;12.33;;
8871;SDS011;4472;52.092;9.820;2023-04-28T15:21:28;14.00;;;11.97;;
8871;SDS011;4472;52.092;9.820;2023-04-28T15:24:18;15.10;;;12.27;;
8871;SDS011;4472;52.092;9.820;2023-04-28T15:27:07;17.77;;;12.87;;
8871;SDS011;4472;52.092;9.820;2023-04-28T15:29:55;15.33;;;13.50;;
8871;SDS011;4472;52.092;9.820;2023-04-28T15:32:42;15.30;;;13.53;;
8871;SDS011;4472;52.092;9.820;2023-04-28T15:35:30;15.23;;;13.43;;
8871;SDS011;4472;52.092;9.820;2023-04-28T15:38:19;20.17;;;13.20;;
8871;SDS011;4472;52.092;9.820;2023-04-28T15:41:06;15.60;;;13.57;;
8871;SDS011;4472;52.092;9.820;2023-04-28T15:43:55;18.93;;;14.57;;
8871;SDS011;4472;52.092;9.820;2023-04-28T15:46:42;18.03;;;14.10;;
8871;SDS011;4472;52.092;9.820;2023-04-28T15:49:29;20.60;;;14.20;;
8871;SDS011;4472;52.092;9.820;2023-04-28T15:52:16;17.87;;;13.73;;
8871;SDS011;4472;52.092;9.820;2023-04-28T15:55:04;16.10;;;13.63;;
8871;SDS011;4472;52.092;9.820;2023-04-28T15:57:52;16.13;;;12.77;;
8871;SDS011;4472;52.092;9.820;2023-04-28T16:00:41;18.67;;;14.60;;
8871;SDS011;4472;52.092;9.820;2023-04-28T16:03:30;16.50;;;14.63;;
8871;SDS011;4472;52.092;9.820;2023-04-28T16:06:17;18.97;;;14.20;;
8871;SDS011;4472;52.092;9.820;2023-04-28T16:09:04;15.70;;;13.70;;
8871;SDS011;4472;52.092;9.820;2023-04-28T16:11:51;16.10;;;14.00;;
8871;SDS011;4472;52.092;9.820;2023-04-28T16:14:38;16.90;;;13.43;;
8871;SDS011;4472;52.092;9.820;2023-04-28T16:17:27;16.00;;;13.30;;
8871;SDS011;4472;52.092;9.820;2023-04-28T16:20:14;18.70;;;13.77;;
8871;SDS011;4472;52.092;9.820;2023-04-28T16:23:03;15.87;;;13.00;;
8871;SDS011;4472;52.092;9.820;2023-04-28T16:25:51;15.70;;;12.20;;
8871;SDS011;4472;52.092;9.820;2023-04-28T16:28:39;14.93;;;13.43;;
8871;SDS011;4472;52.092;9.820;2023-04-28T16:31:26;17.23;;;14.53;;
8871;SDS011;4472;52.092;9.820;2023-04-28T16:34:14;18.50;;;13.70;;
8871;SDS011;4472;52.092;9.820;2023-04-28T16:37:04;19.53;;;14.30;;
8871;SDS011;4472;52.092;9.820;2023-04-28T16:39:51;20.20;;;14.43;;
8871;SDS011;4472;52.092;9.820;2023-04-28T16:42:38;21.33;;;16.27;;
8871;SDS011;4472;52.092;9.820;2023-04-28T16:45:26;19.17;;;15.33;;
8871;SDS011;4472;52.092;9.820;2023-04-28T16:48:14;27.07;;;17.37;;
8871;SDS011;4472;52.092;9.820;2023-04-28T16:51:03;23.70;;;18.90;;
8871;SDS011;4472;52.092;9.820;2023-04-28T16:53:52;25.83;;;19.90;;
8871;SDS011;4472;52.092;9.820;2023-04-28T16:56:39;25.60;;;20.10;;
8871;SDS011;4472;52.092;9.820;2023-04-28T16:59:26;25.23;;;19.53;;
8871;SDS011;4472;52.092;9.820;2023-04-28T17:02:14;20.70;;;17.57;;
8871;SDS011;4472;52.092;9.820;2023-04-28T17:05:01;17.87;;;15.97;;
8871;SDS011;4472;52.092;9.820;2023-04-28T17:07:50;17.30;;;15.37;;
8871;SDS011;4472;52.092;9.820;2023-04-28T17:10:39;19.23;;;14.97;;
8871;SDS011;4472;52.092;9.820;2023-04-28T17:13:26;16.93;;;13.97;;
8871;SDS011;4472;52.092;9.820;2023-04-28T17:16:13;16.17;;;14.40;;
8871;SDS011;4472;52.092;9.820;2023-04-28T17:19:01;16.97;;;14.00;;
8871;SDS011;4472;52.092;9.820;2023-04-28T17:21:51;17.17;;;14.03;;
8871;SDS011;4472;52.092;9.820;2023-04-28T17:24:41;16.30;;;13.43;;